sensor_id;sensor_type;location;lat;lon;timestamp;P1;durP1;ratioP1;P2;durP2;ratioP2
71626;SDS011;59475;52.464;13.590;2023-08-17T00:02:22;5.13;;;2.50;;
71626;SDS011;59475;52.464;13.590;2023-08-17T00:04:47;5.67;;;2.90;;
71626;SDS011;59475;52.464;13.590;2023-08-17T00:07:12;6.00;;;2.80;;
71626;SDS011;59475;52.464;13.590;2023-08-17T00:09:38;5.37;;;2.70;;
71626;SDS011;59475;52.464;13.590;2023-08-17T00:12:04;4.15;;;2.83;;
71626;SDS011;59475;52.464;13.590;2023-08-17T00:14:30;4.45;;;2.70;;
71626;SDS011;59475;52.464;13.590;2023-08-17T00:16:55;5.47;;;2.73;;
71626;SDS011;59475;52.464;13.590;2023-08-17T00:19:21;5.10;;;2.53;;
71626;SDS011;59475;52.464;13.590;2023-08-17T00:21:46;4.25;;;2.53;;
71626;SDS011;59475;52.464;13.590;2023-08-17T00:24:12;5.27;;;2.70;;
71626;SDS011;59475;52.464;13.590;2023-08-17T00:26:37;4.50;;;3.03;;
71626;SDS011;59475;52.464;13.590;2023-08-17T00:29:03;5.37;;;2.97;;
71626;SDS011;59475;52.464;13.590;2023-08-17T00:31:28;7.40;;;2.85;;
71626;SDS011;59475;52.464;13.590;2023-08-17T00:33:54;7.10;;;3.07;;
71626;SDS011;59475;52.464;13.590;2023-08-17T00:36:19;5.33;;;3.07;;
71626;SDS011;59475;52.464;13.590;2023-08-17T00:38:44;5.40;;;2.65;;
71626;SDS011;59475;52.464;13.590;2023-08-17T00:41:10;3.90;;;2.90;;
71626;SDS011;59475;52.464;13.590;2023-08-17T00:43:35;6.37;;;2.93;;
71626;SDS011;59475;52.464;13.590;2023-08-17T00:46:01;4.90;;;2.90;;
71626;SDS011;59475;52.464;13.590;2023-08-17T00:48:27;6.03;;;3.00;;
71626;SDS011;59475;52.464;13.590;2023-08-17T00:50:54;6.03;;;3.08;;
71626;SDS011;59475;52.464;13.590;2023-08-17T00:53:22;6.05;;;3.03;;
71626;SDS011;59475;52.464;13.590;2023-08-17T00:55:49;5.05;;;3.05;;
71626;SDS011;59475;52.464;13.590;2023-08-17T00:58:16;3.70;;;2.87;;
71626;SDS011;59475;52.464;13.590;2023-08-17T01:00:41;7.38;;;3.08;;
71626;SDS011;59475;52.464;13.590;2023-08-17T01:03:06;5.37;;;2.73;;
71626;SDS011;59475;52.464;13.590;2023-08-17T01:05:32;5.37;;;3.17;;
71626;SDS011;59475;52.464;13.590;2023-08-17T01:07:58;4.93;;;2.88;;
71626;SDS011;59475;52.464;13.590;2023-08-17T01:10:25;4.67;;;3.07;;
71626;SDS011;59475;52.464;13.590;2023-08-17T01:15:36;6.03;;;2.90;;
71626;SDS011;59475;52.464;13.590;2023-08-17T01:18:14;4.55;;;2.92;;
71626;SDS011;59475;52.464;13.590;2023-08-17T01:20:43;7.53;;;3.40;;
71626;SDS011;59475;52.464;13.590;2023-08-17T01:23:09;4.77;;;3.07;;
71626;SDS011;59475;52.464;13.590;2023-08-17T01:25:34;5.10;;;3.00;;
71626;SDS011;59475;52.464;13.590;2023-08-17T01:28:02;4.60;;;3.17;;
71626;SDS011;59475;52.464;13.590;2023-08-17T01:30:28;6.40;;;3.33;;
71626;SDS011;59475;52.464;13.590;2023-08-17T01:33:00;4.50;;;3.22;;
71626;SDS011;59475;52.464;13.590;2023-08-17T01:35:28;6.15;;;3.13;;
71626;SDS011;59475;52.464;13.590;2023-08-17T01:37:59;5.10;;;3.13;;
71626;SDS011;59475;52.464;13.590;2023-08-17T01:40:31;6.07;;;2.83;;
71626;SDS011;59475;52.464;13.590;2023-08-17T01:42:57;5.80;;;3.30;;
71626;SDS011;59475;52.464;13.590;2023-08-17T01:45:24;7.32;;;3.10;;
71626;SDS011;59475;52.464;13.590;2023-08-17T01:47:50;8.37;;;3.10;;
71626;SDS011;59475;52.464;13.590;2023-08-17T01:50:15;7.47;;;3.00;;
71626;SDS011;59475;52.464;13.590;2023-08-17T01:52:41;5.50;;;3.60;;
71626;SDS011;59475;52.464;13.590;2023-08-17T01:55:06;5.50;;;3.00;;
71626;SDS011;59475;52.464;13.590;2023-08-17T01:57:33;7.68;;;3.20;;
71626;SDS011;59475;52.464;13.590;2023-08-17T01:59:59;5.37;;;3.07;;
71626;SDS011;59475;52.464;13.590;2023-08-17T02:02:25;8.32;;;3.25;;
71626;SDS011;59475;52.464;13.590;2023-08-17T02:04:50;6.70;;;3.10;;
71626;SDS011;59475;52.464;13.590;2023-08-17T02:07:15;4.05;;;2.83;;
71626;SDS011;59475;52.464;13.590;2023-08-17T02:09:41;4.43;;;3.07;;
71626;SDS011;59475;52.464;13.590;2023-08-17T02:12:06;7.10;;;3.07;;
71626;SDS011;59475;52.464;13.590;2023-08-17T02:14:33;5.47;;;2.92;;
71626;SDS011;59475;52.464;13.590;2023-08-17T02:16:58;4.53;;;2.90;;
71626;SDS011;59475;52.464;13.590;2023-08-17T02:19:24;5.55;;;2.75;;
71626;SDS011;59475;52.464;13.590;2023-08-17T02:21:49;4.13;;;3.00;;
71626;SDS011;59475;52.464;13.590;2023-08-17T02:24:15;6.77;;;3.00;;
71626;SDS011;59475;52.464;13.590;2023-08-17T02:26:40;6.37;;;2.70;;
71626;SDS011;59475;52.464;13.590;2023-08-17T02:29:05;5.63;;;2.97;;
71626;SDS011;59475;52.464;13.590;2023-08-17T02:31:31;6.67;;;3.07;;
71626;SDS011;59475;52.464;13.590;2023-08-17T02:33:56;5.37;;;2.90;;
71626;SDS011;59475;52.464;13.590;2023-08-17T02:36:26;5.72;;;3.08;;
71626;SDS011;59475;52.464;13.590;2023-08-17T02:38:51;8.87;;;3.13;;
71626;SDS011;59475;52.464;13.590;2023-08-17T02:41:17;5.50;;;2.87;;
71626;SDS011;59475;52.464;13.590;2023-08-17T02:43:42;5.83;;;3.30;;
71626;SDS011;59475;52.464;13.590;2023-08-17T02:46:08;5.87;;;2.80;;
71626;SDS011;59475;52.464;13.590;2023-08-17T02:48:34;5.57;;;3.10;;
71626;SDS011;59475;52.464;13.590;2023-08-17T02:50:59;7.80;;;3.03;;
71626;SDS011;59475;52.464;13.590;2023-08-17T02:53:25;4.60;;;2.73;;
71626;SDS011;59475;52.464;13.590;2023-08-17T02:55:50;4.87;;;3.13;;
71626;SDS011;59475;52.464;13.590;2023-08-17T02:58:16;4.83;;;3.10;;
71626;SDS011;59475;52.464;13.590;2023-08-17T03:00:41;4.67;;;3.00;;
71626;SDS011;59475;52.464;13.590;2023-08-17T03:03:06;6.40;;;3.07;;
71626;SDS011;59475;52.464;13.590;2023-08-17T03:05:33;6.83;;;2.80;;
71626;SDS011;59475;52.464;13.590;2023-08-17T03:07:58;6.50;;;2.92;;
71626;SDS011;59475;52.464;13.590;2023-08-17T03:10:23;5.53;;;2.73;;
71626;SDS011;59475;52.464;13.590;2023-08-17T03:12:50;7.28;;;2.97;;
71626;SDS011;59475;52.464;13.590;2023-08-17T03:15:15;6.18;;;2.60;;
71626;SDS011;59475;52.464;13.590;2023-08-17T03:17:41;5.00;;;2.80;;
71626;SDS011;59475;52.464;13.590;2023-08-17T03:20:06;4.97;;;2.70;;
71626;SDS011;59475;52.464;13.590;2023-08-17T03:22:33;4.10;;;2.85;;
71626;SDS011;59475;52.464;13.590;2023-08-17T03:24:59;5.78;;;2.70;;
71626;SDS011;59475;52.464;13.590;2023-08-17T03:27:24;5.90;;;2.60;;
71626;SDS011;59475;52.464;13.590;2023-08-17T03:29:50;3.80;;;2.47;;
71626;SDS011;59475;52.464;13.590;2023-08-17T03:32:16;5.40;;;3.00;;
71626;SDS011;59475;52.464;13.590;2023-08-17T03:34:41;5.17;;;2.60;;
71626;SDS011;59475;52.464;13.590;2023-08-17T03:37:06;6.50;;;2.50;;
71626;SDS011;59475;52.464;13.590;2023-08-17T03:39:32;4.67;;;3.03;;
71626;SDS011;59475;52.464;13.590;2023-08-17T03:41:57;6.00;;;3.17;;
71626;SDS011;59475;52.464;13.590;2023-08-17T03:44:22;6.93;;;2.57;;
71626;SDS011;59475;52.464;13.590;2023-08-17T03:46:48;4.97;;;2.70;;
71626;SDS011;59475;52.464;13.590;2023-08-17T03:49:13;7.68;;;2.97;;
71626;SDS011;59475;52.464;13.590;2023-08-17T03:51:39;5.00;;;2.53;;
71626;SDS011;59475;52.464;13.590;2023-08-17T03:54:05;4.10;;;2.30;;
71626;SDS011;59475;52.464;13.590;2023-08-17T03:56:30;4.43;;;3.00;;
71626;SDS011;59475;52.464;13.590;2023-08-17T03:58:55;4.40;;;2.80;;
71626;SDS011;59475;52.464;13.590;2023-08-17T04:01:21;7.00;;;2.80;;
71626;SDS011;59475;52.464;13.590;2023-08-17T04:03:46;5.03;;;2.80;;
71626;SDS011;59475;52.464;13.590;2023-08-17T04:06:12;6.30;;;2.60;;
71626;SDS011;59475;52.464;13.590;2023-08-17T04:08:37;4.80;;;2.40;;
71626;SDS011;59475;52.464;13.590;2023-08-17T04:11:03;5.88;;;2.83;;
71626;SDS011;59475;52.464;13.590;2023-08-17T04:13:29;3.83;;;2.40;;
71626;SDS011;59475;52.464;13.590;2023-08-17T04:15:55;3.83;;;2.42;;
71626;SDS011;59475;52.464;13.590;2023-08-17T04:18:20;2.87;;;2.10;;
71626;SDS011;59475;52.464;13.590;2023-08-17T04:20:46;3.53;;;2.50;;
71626;SDS011;59475;52.464;13.590;2023-08-17T04:23:11;2.63;;;2.25;;
71626;SDS011;59475;52.464;13.590;2023-08-17T04:25:36;3.40;;;2.43;;
71626;SDS011;59475;52.464;13.590;2023-08-17T04:28:02;5.90;;;2.37;;
71626;SDS011;59475;52.464;13.590;2023-08-17T04:30:27;3.60;;;2.37;;
71626;SDS011;59475;52.464;13.590;2023-08-17T04:32:53;5.77;;;2.60;;
71626;SDS011;59475;52.464;13.590;2023-08-17T04:35:19;4.47;;;2.53;;
71626;SDS011;59475;52.464;13.590;2023-08-17T04:37:45;6.43;;;2.70;;
71626;SDS011;59475;52.464;13.590;2023-08-17T04:40:12;4.15;;;2.10;;
71626;SDS011;59475;52.464;13.590;2023-08-17T04:42:37;3.17;;;2.22;;
71626;SDS011;59475;52.464;13.590;2023-08-17T04:45:03;7.63;;;2.53;;
71626;SDS011;59475;52.464;13.590;2023-08-17T04:47:28;3.97;;;1.90;;
71626;SDS011;59475;52.464;13.590;2023-08-17T04:49:54;2.53;;;2.00;;
71626;SDS011;59475;52.464;13.590;2023-08-17T04:52:19;4.43;;;2.37;;
71626;SDS011;59475;52.464;13.590;2023-08-17T04:54:44;5.63;;;1.97;;
71626;SDS011;59475;52.464;13.590;2023-08-17T04:57:10;3.00;;;2.33;;
71626;SDS011;59475;52.464;13.590;2023-08-17T04:59:35;3.33;;;2.50;;
71626;SDS011;59475;52.464;13.590;2023-08-17T05:02:01;5.35;;;2.40;;
71626;SDS011;59475;52.464;13.590;2023-08-17T05:04:26;2.47;;;1.90;;
71626;SDS011;59475;52.464;13.590;2023-08-17T05:06:52;5.13;;;1.93;;
71626;SDS011;59475;52.464;13.590;2023-08-17T05:09:17;3.70;;;2.05;;
71626;SDS011;59475;52.464;13.590;2023-08-17T05:11:43;5.30;;;2.20;;
71626;SDS011;59475;52.464;13.590;2023-08-17T05:14:08;3.60;;;2.23;;
71626;SDS011;59475;52.464;13.590;2023-08-17T05:16:34;6.13;;;2.10;;
71626;SDS011;59475;52.464;13.590;2023-08-17T05:18:59;4.17;;;2.37;;
71626;SDS011;59475;52.464;13.590;2023-08-17T05:21:25;5.33;;;2.33;;
71626;SDS011;59475;52.464;13.590;2023-08-17T05:23:51;4.00;;;1.88;;
71626;SDS011;59475;52.464;13.590;2023-08-17T05:26:16;3.30;;;2.40;;
71626;SDS011;59475;52.464;13.590;2023-08-17T05:28:42;6.20;;;2.07;;
71626;SDS011;59475;52.464;13.590;2023-08-17T05:31:08;5.15;;;2.30;;
71626;SDS011;59475;52.464;13.590;2023-08-17T05:33:34;3.70;;;1.88;;
71626;SDS011;59475;52.464;13.590;2023-08-17T05:35:59;5.03;;;2.27;;
71626;SDS011;59475;52.464;13.590;2023-08-17T05:38:25;3.97;;;2.10;;
71626;SDS011;59475;52.464;13.590;2023-08-17T05:40:56;5.90;;;2.53;;
71626;SDS011;59475;52.464;13.590;2023-08-17T05:43:22;4.65;;;2.53;;
71626;SDS011;59475;52.464;13.590;2023-08-17T05:45:48;3.60;;;2.40;;
71626;SDS011;59475;52.464;13.590;2023-08-17T05:48:13;4.27;;;2.20;;
71626;SDS011;59475;52.464;13.590;2023-08-17T05:50:42;4.18;;;2.15;;
71626;SDS011;59475;52.464;13.590;2023-08-17T05:53:07;3.10;;;1.83;;
71626;SDS011;59475;52.464;13.590;2023-08-17T05:55:33;4.35;;;2.30;;
71626;SDS011;59475;52.464;13.590;2023-08-17T05:57:58;3.03;;;1.93;;
71626;SDS011;59475;52.464;13.590;2023-08-17T06:00:24;4.57;;;1.90;;
71626;SDS011;59475;52.464;13.590;2023-08-17T06:02:49;5.20;;;2.47;;
71626;SDS011;59475;52.464;13.590;2023-08-17T06:05:16;3.80;;;2.13;;
71626;SDS011;59475;52.464;13.590;2023-08-17T06:07:42;4.30;;;2.10;;
71626;SDS011;59475;52.464;13.590;2023-08-17T06:10:08;3.17;;;1.87;;
71626;SDS011;59475;52.464;13.590;2023-08-17T06:12:34;4.45;;;1.95;;
71626;SDS011;59475;52.464;13.590;2023-08-17T06:15:01;4.87;;;2.13;;
71626;SDS011;59475;52.464;13.590;2023-08-17T06:17:26;3.38;;;2.00;;
71626;SDS011;59475;52.464;13.590;2023-08-17T06:19:52;3.28;;;2.10;;
71626;SDS011;59475;52.464;13.590;2023-08-17T06:22:17;6.30;;;2.30;;
71626;SDS011;59475;52.464;13.590;2023-08-17T06:24:43;3.57;;;2.00;;
71626;SDS011;59475;52.464;13.590;2023-08-17T06:27:08;3.90;;;1.77;;
71626;SDS011;59475;52.464;13.590;2023-08-17T06:29:33;4.20;;;2.00;;
71626;SDS011;59475;52.464;13.590;2023-08-17T06:31:59;4.70;;;2.27;;
71626;SDS011;59475;52.464;13.590;2023-08-17T06:34:24;4.13;;;1.90;;
71626;SDS011;59475;52.464;13.590;2023-08-17T06:36:59;3.13;;;1.80;;
71626;SDS011;59475;52.464;13.590;2023-08-17T06:39:26;3.55;;;2.15;;
71626;SDS011;59475;52.464;13.590;2023-08-17T06:41:52;3.47;;;1.80;;
71626;SDS011;59475;52.464;13.590;2023-08-17T06:44:18;3.78;;;2.10;;
71626;SDS011;59475;52.464;13.590;2023-08-17T06:46:44;4.77;;;1.93;;
71626;SDS011;59475;52.464;13.590;2023-08-17T06:49:10;4.35;;;2.20;;
71626;SDS011;59475;52.464;13.590;2023-08-17T06:51:37;4.10;;;2.00;;
71626;SDS011;59475;52.464;13.590;2023-08-17T06:54:03;4.15;;;2.20;;
71626;SDS011;59475;52.464;13.590;2023-08-17T06:56:30;4.47;;;2.38;;
71626;SDS011;59475;52.464;13.590;2023-08-17T06:58:56;3.33;;;2.08;;
71626;SDS011;59475;52.464;13.590;2023-08-17T07:01:21;4.00;;;1.93;;
71626;SDS011;59475;52.464;13.590;2023-08-17T07:03:47;4.47;;;2.10;;
71626;SDS011;59475;52.464;13.590;2023-08-17T07:06:12;5.15;;;2.20;;
71626;SDS011;59475;52.464;13.590;2023-08-17T07:08:38;4.47;;;2.40;;
71626;SDS011;59475;52.464;13.590;2023-08-17T07:11:04;4.68;;;1.95;;
71626;SDS011;59475;52.464;13.590;2023-08-17T07:13:31;3.53;;;2.10;;
71626;SDS011;59475;52.464;13.590;2023-08-17T07:15:56;4.57;;;2.13;;
71626;SDS011;59475;52.464;13.590;2023-08-17T07:18:22;6.35;;;2.20;;
71626;SDS011;59475;52.464;13.590;2023-08-17T07:20:48;5.37;;;2.13;;
71626;SDS011;59475;52.464;13.590;2023-08-17T07:23:14;4.25;;;2.05;;
71626;SDS011;59475;52.464;13.590;2023-08-17T07:25:40;4.60;;;2.70;;
71626;SDS011;59475;52.464;13.590;2023-08-17T07:28:05;5.63;;;2.20;;
71626;SDS011;59475;52.464;13.590;2023-08-17T07:30:31;4.10;;;1.93;;
71626;SDS011;59475;52.464;13.590;2023-08-17T07:32:56;6.20;;;2.17;;
71626;SDS011;59475;52.464;13.590;2023-08-17T07:35:22;4.88;;;2.10;;
71626;SDS011;59475;52.464;13.590;2023-08-17T07:37:47;4.03;;;2.20;;
71626;SDS011;59475;52.464;13.590;2023-08-17T07:40:12;6.03;;;2.83;;
71626;SDS011;59475;52.464;13.590;2023-08-17T07:42:38;5.40;;;2.33;;
71626;SDS011;59475;52.464;13.590;2023-08-17T07:45:03;6.07;;;2.30;;
71626;SDS011;59475;52.464;13.590;2023-08-17T07:47:31;2.63;;;2.00;;
71626;SDS011;59475;52.464;13.590;2023-08-17T07:49:56;3.30;;;2.17;;
71626;SDS011;59475;52.464;13.590;2023-08-17T07:52:23;3.78;;;2.30;;
71626;SDS011;59475;52.464;13.590;2023-08-17T07:54:48;5.40;;;2.10;;
71626;SDS011;59475;52.464;13.590;2023-08-17T07:57:14;4.13;;;2.33;;
71626;SDS011;59475;52.464;13.590;2023-08-17T07:59:39;3.83;;;2.45;;
71626;SDS011;59475;52.464;13.590;2023-08-17T08:02:05;5.90;;;1.93;;
71626;SDS011;59475;52.464;13.590;2023-08-17T08:04:30;3.83;;;2.17;;
71626;SDS011;59475;52.464;13.590;2023-08-17T08:06:55;3.83;;;2.10;;
71626;SDS011;59475;52.464;13.590;2023-08-17T08:09:21;4.43;;;2.30;;
71626;SDS011;59475;52.464;13.590;2023-08-17T08:11:46;4.57;;;2.47;;
71626;SDS011;59475;52.464;13.590;2023-08-17T08:14:12;4.43;;;2.57;;
71626;SDS011;59475;52.464;13.590;2023-08-17T08:16:37;4.30;;;2.20;;
71626;SDS011;59475;52.464;13.590;2023-08-17T08:19:02;3.37;;;2.20;;
71626;SDS011;59475;52.464;13.590;2023-08-17T08:21:28;3.17;;;2.22;;
71626;SDS011;59475;52.464;13.590;2023-08-17T08:23:53;4.50;;;2.63;;
71626;SDS011;59475;52.464;13.590;2023-08-17T08:26:19;5.82;;;2.90;;
71626;SDS011;59475;52.464;13.590;2023-08-17T08:28:44;5.73;;;2.70;;
71626;SDS011;59475;52.464;13.590;2023-08-17T08:31:10;4.87;;;2.30;;
71626;SDS011;59475;52.464;13.590;2023-08-17T08:33:35;4.47;;;2.17;;
71626;SDS011;59475;52.464;13.590;2023-08-17T08:36:01;5.95;;;2.47;;
71626;SDS011;59475;52.464;13.590;2023-08-17T08:38:26;4.90;;;2.47;;
71626;SDS011;59475;52.464;13.590;2023-08-17T08:40:52;3.80;;;2.30;;
71626;SDS011;59475;52.464;13.590;2023-08-17T08:43:18;5.30;;;2.20;;
71626;SDS011;59475;52.464;13.590;2023-08-17T08:45:44;4.28;;;2.67;;
71626;SDS011;59475;52.464;13.590;2023-08-17T08:48:13;4.93;;;2.50;;
71626;SDS011;59475;52.464;13.590;2023-08-17T08:50:41;4.45;;;2.30;;
71626;SDS011;59475;52.464;13.590;2023-08-17T08:53:10;6.53;;;2.50;;
71626;SDS011;59475;52.464;13.590;2023-08-17T08:55:38;5.28;;;2.47;;
71626;SDS011;59475;52.464;13.590;2023-08-17T08:58:22;5.25;;;2.53;;
71626;SDS011;59475;52.464;13.590;2023-08-17T09:00:50;7.00;;;2.88;;
71626;SDS011;59475;52.464;13.590;2023-08-17T09:03:15;5.37;;;2.60;;
71626;SDS011;59475;52.464;13.590;2023-08-17T09:05:44;5.53;;;2.30;;
71626;SDS011;59475;52.464;13.590;2023-08-17T09:08:13;4.95;;;2.50;;
71626;SDS011;59475;52.464;13.590;2023-08-17T09:10:43;6.53;;;2.90;;
71626;SDS011;59475;52.464;13.590;2023-08-17T09:13:09;3.72;;;2.83;;
71626;SDS011;59475;52.464;13.590;2023-08-17T09:15:35;4.78;;;2.50;;
71626;SDS011;59475;52.464;13.590;2023-08-17T09:18:00;6.47;;;2.90;;
71626;SDS011;59475;52.464;13.590;2023-08-17T09:23:21;5.90;;;2.90;;
71626;SDS011;59475;52.464;13.590;2023-08-17T09:25:47;4.25;;;2.60;;
71626;SDS011;59475;52.464;13.590;2023-08-17T09:28:14;6.70;;;2.67;;
71626;SDS011;59475;52.464;13.590;2023-08-17T09:30:51;4.20;;;2.83;;
71626;SDS011;59475;52.464;13.590;2023-08-17T09:33:18;3.03;;;2.57;;
71626;SDS011;59475;52.464;13.590;2023-08-17T09:35:44;4.35;;;2.67;;
71626;SDS011;59475;52.464;13.590;2023-08-17T09:38:09;4.60;;;2.97;;
71626;SDS011;59475;52.464;13.590;2023-08-17T09:40:34;3.58;;;2.67;;
71626;SDS011;59475;52.464;13.590;2023-08-17T09:43:01;4.10;;;3.33;;
71626;SDS011;59475;52.464;13.590;2023-08-17T09:45:27;5.72;;;3.03;;
71626;SDS011;59475;52.464;13.590;2023-08-17T09:47:53;6.40;;;2.83;;
71626;SDS011;59475;52.464;13.590;2023-08-17T09:50:22;3.90;;;2.80;;
71626;SDS011;59475;52.464;13.590;2023-08-17T09:52:48;5.72;;;3.30;;
71626;SDS011;59475;52.464;13.590;2023-08-17T09:55:18;3.83;;;2.78;;
71626;SDS011;59475;52.464;13.590;2023-08-17T09:57:45;4.38;;;3.03;;
71626;SDS011;59475;52.464;13.590;2023-08-17T10:00:12;3.70;;;2.90;;
71626;SDS011;59475;52.464;13.590;2023-08-17T10:02:38;4.97;;;3.45;;
71626;SDS011;59475;52.464;13.590;2023-08-17T10:05:03;6.40;;;3.30;;
71626;SDS011;59475;52.464;13.590;2023-08-17T10:07:30;6.00;;;2.80;;
71626;SDS011;59475;52.464;13.590;2023-08-17T10:10:07;4.38;;;2.85;;
71626;SDS011;59475;52.464;13.590;2023-08-17T10:12:45;4.88;;;3.30;;
71626;SDS011;59475;52.464;13.590;2023-08-17T10:15:18;5.32;;;3.40;;
71626;SDS011;59475;52.464;13.590;2023-08-17T10:17:50;4.40;;;3.10;;
71626;SDS011;59475;52.464;13.590;2023-08-17T10:20:25;6.30;;;3.10;;
71626;SDS011;59475;52.464;13.590;2023-08-17T10:25:32;5.95;;;3.30;;
71626;SDS011;59475;52.464;13.590;2023-08-17T10:27:58;5.78;;;3.00;;
71626;SDS011;59475;52.464;13.590;2023-08-17T10:30:25;5.03;;;3.17;;
71626;SDS011;59475;52.464;13.590;2023-08-17T10:32:51;5.35;;;3.38;;
71626;SDS011;59475;52.464;13.590;2023-08-17T10:35:16;4.70;;;3.23;;
71626;SDS011;59475;52.464;13.590;2023-08-17T10:37:42;4.15;;;3.35;;
71626;SDS011;59475;52.464;13.590;2023-08-17T10:40:09;4.28;;;3.25;;
71626;SDS011;59475;52.464;13.590;2023-08-17T10:42:35;4.07;;;2.85;;
71626;SDS011;59475;52.464;13.590;2023-08-17T10:45:02;4.50;;;2.78;;
71626;SDS011;59475;52.464;13.590;2023-08-17T10:47:46;4.60;;;3.23;;
71626;SDS011;59475;52.464;13.590;2023-08-17T10:50:20;4.55;;;3.20;;
71626;SDS011;59475;52.464;13.590;2023-08-17T10:52:47;5.20;;;3.25;;
71626;SDS011;59475;52.464;13.590;2023-08-17T10:55:35;4.17;;;2.60;;
71626;SDS011;59475;52.464;13.590;2023-08-17T10:58:10;5.07;;;2.85;;
71626;SDS011;59475;52.464;13.590;2023-08-17T11:00:39;4.72;;;3.30;;
71626;SDS011;59475;52.464;13.590;2023-08-17T11:03:07;4.47;;;3.25;;
71626;SDS011;59475;52.464;13.590;2023-08-17T11:05:42;5.35;;;3.65;;
71626;SDS011;59475;52.464;13.590;2023-08-17T11:08:28;7.03;;;3.30;;
71626;SDS011;59475;52.464;13.590;2023-08-17T11:13:32;4.60;;;3.47;;
71626;SDS011;59475;52.464;13.590;2023-08-17T11:15:59;4.00;;;3.47;;
71626;SDS011;59475;52.464;13.590;2023-08-17T11:18:26;5.47;;;3.50;;
71626;SDS011;59475;52.464;13.590;2023-08-17T11:20:52;4.47;;;3.40;;
71626;SDS011;59475;52.464;13.590;2023-08-17T11:23:18;4.57;;;3.30;;
71626;SDS011;59475;52.464;13.590;2023-08-17T11:25:44;4.00;;;3.13;;
71626;SDS011;59475;52.464;13.590;2023-08-17T11:28:10;4.23;;;3.13;;
71626;SDS011;59475;52.464;13.590;2023-08-17T11:30:35;5.70;;;3.22;;
71626;SDS011;59475;52.464;13.590;2023-08-17T11:33:04;3.53;;;3.20;;
71626;SDS011;59475;52.464;13.590;2023-08-17T11:35:30;4.32;;;3.00;;
71626;SDS011;59475;52.464;13.590;2023-08-17T11:37:56;4.80;;;3.47;;
71626;SDS011;59475;52.464;13.590;2023-08-17T11:40:21;6.50;;;3.70;;
71626;SDS011;59475;52.464;13.590;2023-08-17T11:42:47;4.45;;;3.35;;
71626;SDS011;59475;52.464;13.590;2023-08-17T11:45:13;6.17;;;3.70;;
71626;SDS011;59475;52.464;13.590;2023-08-17T11:47:39;3.55;;;3.25;;
71626;SDS011;59475;52.464;13.590;2023-08-17T11:50:06;6.65;;;3.85;;
71626;SDS011;59475;52.464;13.590;2023-08-17T11:52:33;4.47;;;3.88;;
71626;SDS011;59475;52.464;13.590;2023-08-17T11:55:01;4.87;;;3.83;;
71626;SDS011;59475;52.464;13.590;2023-08-17T11:57:30;8.43;;;4.20;;
71626;SDS011;59475;52.464;13.590;2023-08-17T11:59:58;4.30;;;3.65;;
71626;SDS011;59475;52.464;13.590;2023-08-17T12:02:25;5.43;;;3.95;;
71626;SDS011;59475;52.464;13.590;2023-08-17T12:04:54;4.63;;;3.75;;
71626;SDS011;59475;52.464;13.590;2023-08-17T12:07:21;3.73;;;3.33;;
71626;SDS011;59475;52.464;13.590;2023-08-17T12:09:47;4.32;;;3.67;;
71626;SDS011;59475;52.464;13.590;2023-08-17T12:12:13;4.65;;;3.38;;
71626;SDS011;59475;52.464;13.590;2023-08-17T12:14:42;4.40;;;3.70;;
71626;SDS011;59475;52.464;13.590;2023-08-17T12:17:17;4.40;;;4.00;;
71626;SDS011;59475;52.464;13.590;2023-08-17T12:19:43;4.03;;;3.57;;
71626;SDS011;59475;52.464;13.590;2023-08-17T12:22:10;5.70;;;4.15;;
71626;SDS011;59475;52.464;13.590;2023-08-17T12:24:37;3.90;;;3.50;;
71626;SDS011;59475;52.464;13.590;2023-08-17T12:27:03;4.55;;;3.67;;
71626;SDS011;59475;52.464;13.590;2023-08-17T12:29:30;4.20;;;3.80;;
71626;SDS011;59475;52.464;13.590;2023-08-17T12:32:00;7.25;;;3.83;;
71626;SDS011;59475;52.464;13.590;2023-08-17T12:34:26;4.90;;;4.20;;
71626;SDS011;59475;52.464;13.590;2023-08-17T12:36:52;6.57;;;4.53;;
71626;SDS011;59475;52.464;13.590;2023-08-17T12:39:17;6.37;;;4.17;;
71626;SDS011;59475;52.464;13.590;2023-08-17T12:41:43;5.72;;;3.90;;
71626;SDS011;59475;52.464;13.590;2023-08-17T12:44:09;4.50;;;3.83;;
71626;SDS011;59475;52.464;13.590;2023-08-17T12:46:38;4.68;;;3.97;;
71626;SDS011;59475;52.464;13.590;2023-08-17T12:49:04;7.05;;;4.30;;
71626;SDS011;59475;52.464;13.590;2023-08-17T12:51:29;6.83;;;4.30;;
71626;SDS011;59475;52.464;13.590;2023-08-17T12:53:54;4.60;;;4.13;;
71626;SDS011;59475;52.464;13.590;2023-08-17T12:56:20;5.70;;;4.10;;
71626;SDS011;59475;52.464;13.590;2023-08-17T12:58:45;7.37;;;4.40;;
71626;SDS011;59475;52.464;13.590;2023-08-17T13:01:11;4.65;;;4.20;;
71626;SDS011;59475;52.464;13.590;2023-08-17T13:03:38;5.70;;;4.10;;
71626;SDS011;59475;52.464;13.590;2023-08-17T13:06:04;5.00;;;4.30;;
71626;SDS011;59475;52.464;13.590;2023-08-17T13:08:29;5.03;;;3.90;;
71626;SDS011;59475;52.464;13.590;2023-08-17T13:10:55;5.87;;;4.30;;
71626;SDS011;59475;52.464;13.590;2023-08-17T13:13:20;4.80;;;4.20;;
71626;SDS011;59475;52.464;13.590;2023-08-17T13:15:46;5.10;;;4.10;;
71626;SDS011;59475;52.464;13.590;2023-08-17T13:18:11;7.93;;;4.40;;
71626;SDS011;59475;52.464;13.590;2023-08-17T13:20:37;4.30;;;3.90;;
71626;SDS011;59475;52.464;13.590;2023-08-17T13:23:03;5.63;;;4.18;;
71626;SDS011;59475;52.464;13.590;2023-08-17T13:25:29;4.67;;;4.20;;
71626;SDS011;59475;52.464;13.590;2023-08-17T13:27:54;5.63;;;3.83;;
71626;SDS011;59475;52.464;13.590;2023-08-17T13:30:19;4.77;;;3.50;;
71626;SDS011;59475;52.464;13.590;2023-08-17T13:32:45;7.00;;;3.70;;
71626;SDS011;59475;52.464;13.590;2023-08-17T13:35:10;4.07;;;3.67;;
71626;SDS011;59475;52.464;13.590;2023-08-17T13:37:36;4.30;;;3.60;;
71626;SDS011;59475;52.464;13.590;2023-08-17T13:40:02;4.10;;;3.33;;
71626;SDS011;59475;52.464;13.590;2023-08-17T13:42:28;5.43;;;4.05;;
71626;SDS011;59475;52.464;13.590;2023-08-17T13:44:53;3.70;;;3.33;;
71626;SDS011;59475;52.464;13.590;2023-08-17T13:47:19;5.87;;;4.00;;
71626;SDS011;59475;52.464;13.590;2023-08-17T13:49:44;3.80;;;3.35;;
71626;SDS011;59475;52.464;13.590;2023-08-17T13:52:10;4.07;;;3.37;;
71626;SDS011;59475;52.464;13.590;2023-08-17T13:54:35;4.60;;;3.67;;
71626;SDS011;59475;52.464;13.590;2023-08-17T13:57:01;4.50;;;3.43;;
71626;SDS011;59475;52.464;13.590;2023-08-17T13:59:26;4.03;;;3.07;;
71626;SDS011;59475;52.464;13.590;2023-08-17T14:01:52;4.03;;;3.63;;
71626;SDS011;59475;52.464;13.590;2023-08-17T14:04:17;4.27;;;2.90;;
71626;SDS011;59475;52.464;13.590;2023-08-17T14:06:43;3.65;;;3.20;;
71626;SDS011;59475;52.464;13.590;2023-08-17T14:09:09;5.40;;;3.20;;
71626;SDS011;59475;52.464;13.590;2023-08-17T14:11:34;4.10;;;3.43;;
71626;SDS011;59475;52.464;13.590;2023-08-17T14:13:59;6.37;;;3.33;;
71626;SDS011;59475;52.464;13.590;2023-08-17T14:16:25;5.47;;;4.00;;
71626;SDS011;59475;52.464;13.590;2023-08-17T14:18:50;6.80;;;3.50;;
71626;SDS011;59475;52.464;13.590;2023-08-17T14:21:15;4.67;;;3.40;;
71626;SDS011;59475;52.464;13.590;2023-08-17T14:23:41;4.37;;;3.33;;
71626;SDS011;59475;52.464;13.590;2023-08-17T14:26:06;4.23;;;3.40;;
71626;SDS011;59475;52.464;13.590;2023-08-17T14:28:32;7.10;;;3.70;;
71626;SDS011;59475;52.464;13.590;2023-08-17T14:30:57;8.70;;;3.67;;
71626;SDS011;59475;52.464;13.590;2023-08-17T14:33:23;5.03;;;3.60;;
71626;SDS011;59475;52.464;13.590;2023-08-17T14:35:48;3.97;;;3.57;;
71626;SDS011;59475;52.464;13.590;2023-08-17T14:38:14;4.93;;;4.03;;
71626;SDS011;59475;52.464;13.590;2023-08-17T14:40:44;4.40;;;3.25;;